Terminal Aerodrome Forecast
Issued by NWS

Home | Current Version | Previous Version | Text Only | Print | Product List | Glossary On
Versions: 1 2 3 4 5 6 7 8 9 10 11 12 13 14 15 16 17 18 19 20 21 22 23 24 25
000
FTUS43 KDMX 211259 AAC
TAFFOD
TAF AMD
KFOD 211259Z 2113/2212 VRB03KT 1/4SM FG BKN002
      TEMPO 2113/2115 2SM BR BKN002
     FM211500 20005KT 5SM BR SKC
     FM211700 21012G18KT P6SM SKC
     FM220000 20007KT P6SM SKC
     FM220200 21010KT P6SM SKC WS020/24035KT
     FM220400 21009KT P6SM SKC=

USA.gov is the U.S. government's official web portal to all federal, state and local government web resources and services.